Time;durP1;ratioP1;P1;durP2;ratioP2;P2;SDS_P1;SDS_P2;PMS_P1;PMS_P2;Temp;Humidity;BMP_temperature;BMP_pressure;BME280_temperature;BME280_humidity;BME280_pressure;Samples;Min_cycle;Max_cycle;Signal;HPM_P1;HPM_P2
2024/01/21 04:01:52;;;;;;;7.57;6.63;;;20.20;20.60;;;;;;5357336;22;45638;-81
2024/01/21 04:04:18;;;;;;;7.88;7.00;;;20.20;20.60;;;;;;4990930;28;45384;-81
2024/01/21 04:06:44;;;;;;;7.67;6.40;;;20.20;20.60;;;;;;4961982;28;44802;-81
2024/01/21 04:09:10;;;;;;;7.17;6.43;;;20.20;20.50;;;;;;4972846;28;45296;-81
2024/01/21 04:11:36;;;;;;;7.10;6.25;;;20.20;20.50;;;;;;4968822;28;45616;-83
2024/01/21 04:14:02;;;;;;;8.32;6.90;;;20.20;20.50;;;;;;4963754;28;47102;-80
2024/01/21 04:16:27;;;;;;;7.65;6.85;;;20.20;20.50;;;;;;4968721;28;45609;-82
2024/01/21 04:18:56;;;;;;;7.90;6.75;;;20.20;20.50;;;;;;4971113;28;45227;-81
2024/01/21 04:21:22;;;;;;;7.60;6.25;;;20.30;20.50;;;;;;4973618;28;45633;-81
2024/01/21 04:23:48;;;;;;;7.90;6.63;;;20.30;20.50;;;;;;4959217;28;46248;-81
2024/01/21 04:26:15;;;;;;;8.00;6.33;;;20.30;20.50;;;;;;4960051;28;45892;-82
2024/01/21 04:28:41;;;;;;;7.07;6.00;;;20.30;20.40;;;;;;4997831;28;45430;-82
2024/01/21 04:31:06;;;;;;;6.70;5.97;;;20.40;20.50;;;;;;4987322;28;45374;-83
2024/01/21 04:33:33;;;;;;;6.68;5.97;;;20.40;20.40;;;;;;4975033;28;48273;-81
2024/01/21 04:35:59;;;;;;;7.78;6.15;;;20.40;20.40;;;;;;4999999;28;45756;-82
2024/01/21 04:38:25;;;;;;;6.53;5.80;;;20.40;20.40;;;;;;5015477;28;45356;-82
2024/01/21 04:40:54;;;;;;;6.65;5.95;;;20.40;20.40;;;;;;4975375;28;45426;-81
2024/01/21 04:43:20;;;;;;;8.07;6.18;;;20.40;20.30;;;;;;4994315;28;46114;-81
2024/01/21 04:45:46;;;;;;;6.80;6.03;;;20.40;20.30;;;;;;4982868;28;45690;-81
2024/01/21 04:48:12;;;;;;;7.03;6.10;;;20.40;20.30;;;;;;4985970;28;45147;-80
2024/01/21 04:50:44;;;;;;;7.40;6.05;;;20.50;20.30;;;;;;5000889;28;45669;-81
2024/01/21 04:53:10;;;;;;;6.97;5.95;;;20.50;20.30;;;;;;5006149;28;46301;-80
2024/01/21 04:55:35;;;;;;;7.03;6.13;;;20.50;20.30;;;;;;4975499;28;45115;-82
2024/01/21 04:58:01;;;;;;;7.60;6.15;;;20.60;20.30;;;;;;4988125;28;45627;-81
2024/01/21 05:00:27;;;;;;;7.07;6.23;;;20.60;20.30;;;;;;4982470;28;45356;-82
2024/01/21 05:02:53;;;;;;;7.70;5.60;;;20.60;20.30;;;;;;4970143;28;45134;-81
2024/01/21 05:05:22;;;;;;;7.78;5.90;;;20.60;20.30;;;;;;4981519;28;44990;-84
2024/01/21 05:07:48;;;;;;;7.33;5.80;;;20.60;20.30;;;;;;5006592;28;45550;-82
2024/01/21 05:10:14;;;;;;;7.32;5.90;;;20.60;20.20;;;;;;4987311;28;45431;-81
2024/01/21 05:12:40;;;;;;;6.30;5.70;;;20.70;20.30;;;;;;4971413;28;46469;-82
2024/01/21 05:15:06;;;;;;;6.65;5.80;;;20.70;20.20;;;;;;4998535;28;45236;-83
2024/01/21 05:17:31;;;;;;;6.43;5.40;;;20.70;20.20;;;;;;4954631;28;45637;-82
2024/01/21 05:19:57;;;;;;;6.60;5.77;;;20.70;20.20;;;;;;4973002;28;45552;-82
2024/01/21 05:22:23;;;;;;;6.90;5.90;;;20.80;20.20;;;;;;4996756;28;47395;-82
2024/01/21 05:24:50;;;;;;;7.47;5.63;;;20.80;20.20;;;;;;4987391;28;45363;-81
2024/01/21 05:27:16;;;;;;;6.25;5.28;;;20.80;20.10;;;;;;4974718;28;45510;-81
2024/01/21 05:29:43;;;;;;;6.32;5.55;;;20.80;20.10;;;;;;4988056;28;45379;-81
2024/01/21 05:32:09;;;;;;;6.57;5.75;;;20.80;20.10;;;;;;4978436;28;46468;-83
2024/01/21 05:34:35;;;;;;;6.45;5.25;;;20.90;20.10;;;;;;4993095;28;45515;-82
2024/01/21 05:37:01;;;;;;;6.70;5.57;;;20.90;20.00;;;;;;4981948;28;45230;-82
2024/01/21 05:39:26;;;;;;;6.67;5.60;;;20.90;20.00;;;;;;4958361;28;45162;-80
2024/01/21 05:42:03;;;;;;;6.38;5.32;;;20.90;20.10;;;;;;4991087;28;45508;-82
2024/01/21 05:44:29;;;;;;;6.72;4.95;;;20.90;20.00;;;;;;5001270;28;45688;-83
2024/01/21 05:46:57;;;;;;;6.00;5.30;;;20.90;19.90;;;;;;4961205;28;59777;-81
2024/01/21 05:49:23;;;;;;;5.75;5.15;;;20.90;19.90;;;;;;4970833;28;45524;-81
2024/01/21 05:51:49;;;;;;;5.32;4.53;;;21.00;20.00;;;;;;4965639;28;46579;-81
2024/01/21 05:54:15;;;;;;;5.72;5.00;;;21.00;20.00;;;;;;4975819;28;45135;-81
2024/01/21 05:56:40;;;;;;;5.27;4.77;;;21.00;19.90;;;;;;4981253;28;45822;-81
2024/01/21 05:59:06;;;;;;;5.40;4.85;;;21.00;19.80;;;;;;5001446;28;45537;-81
2024/01/21 06:01:32;;;;;;;5.40;4.88;;;21.00;19.80;;;;;;4949241;28;45793;-82
2024/01/21 06:03:57;;;;;;;5.43;4.60;;;21.10;19.90;;;;;;4985920;28;45868;-80
2024/01/21 06:06:23;;;;;;;5.07;4.57;;;21.00;19.80;;;;;;5001773;28;45510;-80
2024/01/21 06:08:53;;;;;;;5.35;4.35;;;21.10;19.80;;;;;;5002441;28;45236;-83
2024/01/21 06:11:19;;;;;;;5.10;4.60;;;21.10;19.80;;;;;;4998842;28;46339;-81
2024/01/21 06:13:45;;;;;;;4.80;4.30;;;21.20;19.80;;;;;;4965835;28;44837;-82
2024/01/21 06:16:16;;;;;;;4.97;4.30;;;21.20;19.80;;;;;;4984856;28;45607;-81
2024/01/21 06:19:02;;;;;;;5.28;4.78;;;21.20;19.80;;;;;;4974092;28;45900;-84
2024/01/21 06:21:28;;;;;;;5.75;4.95;;;21.20;19.80;;;;;;4984892;28;46557;-80
2024/01/21 06:23:57;;;;;;;6.50;5.80;;;21.20;19.80;;;;;;4980499;28;45448;-82
2024/01/21 06:26:23;;;;;;;7.50;6.65;;;21.20;19.70;;;;;;4984326;28;45395;-83
2024/01/21 06:28:51;;;;;;;9.10;7.80;;;21.20;19.70;;;;;;4989252;28;45131;-81
2024/01/21 06:31:18;;;;;;;10.90;9.02;;;21.20;19.70;;;;;;4985706;28;46484;-81
2024/01/21 06:33:44;;;;;;;10.98;9.52;;;21.20;19.70;;;;;;4993100;28;45252;-81
2024/01/21 06:36:10;;;;;;;12.60;10.55;;;21.20;19.70;;;;;;4983846;28;45170;-82
2024/01/21 06:38:37;;;;;;;14.70;11.63;;;21.30;19.80;;;;;;4980529;28;44859;-81
2024/01/21 06:41:03;;;;;;;17.23;13.87;;;21.20;19.70;;;;;;4987600;28;46036;-82
2024/01/21 06:43:29;;;;;;;18.50;14.90;;;21.20;19.70;;;;;;4970792;28;45343;-80
2024/01/21 06:45:55;;;;;;;20.03;15.93;;;21.20;19.70;;;;;;4966036;28;45153;-81
2024/01/21 06:48:21;;;;;;;22.27;16.63;;;21.30;19.70;;;;;;4981290;28;45340;-82
2024/01/21 06:50:51;;;;;;;24.30;18.27;;;21.20;19.70;;;;;;4973722;28;47415;-82
2024/01/21 06:53:18;;;;;;;23.33;18.35;;;21.30;19.70;;;;;;4987730;28;45371;-81
2024/01/21 06:55:44;;;;;;;24.02;18.98;;;21.30;19.70;;;;;;4979254;28;44869;-81
2024/01/21 06:58:10;;;;;;;24.00;18.17;;;21.30;19.70;;;;;;5004196;28;45003;-81
2024/01/21 07:00:35;;;;;;;23.57;18.27;;;21.30;19.70;;;;;;4977286;28;45986;-82
2024/01/21 07:03:01;;;;;;;23.73;18.45;;;21.30;19.60;;;;;;4980863;28;44804;-81
2024/01/21 07:05:27;;;;;;;23.27;18.00;;;21.30;19.70;;;;;;4986316;28;45252;-82
2024/01/21 07:07:53;;;;;;;22.23;17.27;;;21.30;19.70;;;;;;4962454;28;45385;-82
2024/01/21 07:10:18;;;;;;;22.43;17.00;;;21.30;19.70;;;;;;4971661;28;46212;-84
2024/01/21 07:12:44;;;;;;;20.47;16.40;;;21.30;19.70;;;;;;4960999;28;44915;-81
2024/01/21 07:15:10;;;;;;;21.00;16.40;;;21.30;19.70;;;;;;4992486;28;45456;-81
2024/01/21 07:17:36;;;;;;;20.87;16.40;;;21.30;19.70;;;;;;4996776;28;45031;-80
2024/01/21 07:20:06;;;;;;;20.05;15.88;;;21.30;19.70;;;;;;4991957;28;46298;-85
2024/01/21 07:22:35;;;;;;;19.87;15.50;;;21.30;19.70;;;;;;4968122;28;45799;-83
2024/01/21 07:25:01;;;;;;;19.08;14.90;;;21.30;19.70;;;;;;4982340;28;45556;-82
2024/01/21 07:27:31;;;;;;;19.15;14.82;;;21.30;19.60;;;;;;4960169;28;45255;-82
2024/01/21 07:29:57;;;;;;;18.10;14.20;;;21.30;19.60;;;;;;4988442;28;46340;-80
2024/01/21 07:32:23;;;;;;;16.70;12.95;;;21.30;19.70;;;;;;4979638;28;45204;-81
2024/01/21 07:34:49;;;;;;;16.43;13.03;;;21.30;19.70;;;;;;4984535;28;45379;-82
2024/01/21 07:37:15;;;;;;;15.73;12.50;;;21.20;19.60;;;;;;5002292;28;45260;-81
2024/01/21 07:39:41;;;;;;;15.37;12.27;;;21.30;19.70;;;;;;4971658;28;45306;-82
2024/01/21 07:42:07;;;;;;;15.23;12.17;;;21.30;19.70;;;;;;4962911;28;45390;-83
2024/01/21 07:44:33;;;;;;;14.03;11.23;;;21.30;19.70;;;;;;4981091;28;45852;-80
2024/01/21 07:47:02;;;;;;;12.60;10.70;;;21.30;19.70;;;;;;4977228;28;45714;-84
2024/01/21 07:49:28;;;;;;;13.13;10.70;;;21.20;19.60;;;;;;5009128;28;46640;-81
2024/01/21 07:51:54;;;;;;;13.52;10.50;;;21.30;19.70;;;;;;4984798;28;45284;-83
2024/01/21 07:54:20;;;;;;;13.02;10.15;;;21.20;19.70;;;;;;4993089;28;45415;-82
2024/01/21 07:56:46;;;;;;;11.80;9.82;;;21.20;19.60;;;;;;4974687;28;44682;-81
2024/01/21 07:59:12;;;;;;;11.30;9.03;;;21.30;19.70;;;;;;4998154;28;45591;-80
2024/01/21 08:01:38;;;;;;;10.30;8.15;;;21.20;19.70;;;;;;4983597;28;45276;-82
2024/01/21 08:04:03;;;;;;;12.37;8.90;;;21.20;19.70;;;;;;4994005;28;45224;-80
2024/01/21 08:06:29;;;;;;;9.38;7.78;;;21.20;19.70;;;;;;4975197;28;45830;-81
2024/01/21 08:08:56;;;;;;;9.13;7.40;;;21.20;19.70;;;;;;4974867;28;46250;-81
2024/01/21 08:11:22;;;;;;;8.73;7.38;;;21.20;19.70;;;;;;4987947;28;45410;-81
2024/01/21 08:13:48;;;;;;;9.77;7.45;;;21.20;19.70;;;;;;5008539;28;45228;-81
2024/01/21 08:16:14;;;;;;;8.88;7.07;;;21.20;19.70;;;;;;4997395;28;44764;-81
2024/01/21 08:18:40;;;;;;;8.32;6.38;;;21.20;19.70;;;;;;4995955;28;46302;-81
2024/01/21 08:21:06;;;;;;;7.53;6.50;;;21.20;19.70;;;;;;4998198;28;45533;-81
2024/01/21 08:23:35;;;;;;;8.17;6.50;;;21.20;19.70;;;;;;5003797;28;45280;-82
2024/01/21 08:26:04;;;;;;;6.43;5.70;;;21.20;19.70;;;;;;4977311;28;45236;-81
2024/01/21 08:28:30;;;;;;;6.78;5.50;;;21.20;19.80;;;;;;4999617;28;47040;-81
2024/01/21 08:30:56;;;;;;;6.60;5.50;;;21.20;19.80;;;;;;4971164;28;45523;-81
2024/01/21 08:33:23;;;;;;;6.40;5.25;;;21.20;19.70;;;;;;4989092;28;45956;-81
2024/01/21 08:35:49;;;;;;;5.53;4.78;;;21.20;19.70;;;;;;5002907;28;44866;-81
2024/01/21 08:38:15;;;;;;;6.15;5.10;;;21.20;19.80;;;;;;4974592;28;46361;-82
2024/01/21 08:40:40;;;;;;;5.83;4.83;;;21.10;19.80;;;;;;4988463;28;44925;-81
2024/01/21 08:43:06;;;;;;;5.43;4.40;;;21.20;19.80;;;;;;4970142;28;45367;-83
2024/01/21 08:45:33;;;;;;;4.88;4.38;;;21.20;19.80;;;;;;4990357;28;45065;-81
2024/01/21 08:47:59;;;;;;;5.10;4.35;;;21.10;19.80;;;;;;5006556;28;45396;-82
2024/01/21 08:50:25;;;;;;;5.20;4.20;;;21.20;19.80;;;;;;4995881;28;46148;-82
2024/01/21 08:52:51;;;;;;;5.05;4.30;;;21.10;19.80;;;;;;4978113;28;44861;-82
2024/01/21 08:55:17;;;;;;;5.63;4.23;;;21.10;19.80;;;;;;4962435;28;44921;-81
2024/01/21 08:57:43;;;;;;;4.53;4.03;;;21.10;19.80;;;;;;5006388;28;45597;-83
2024/01/21 09:00:10;;;;;;;4.00;3.60;;;21.10;19.90;;;;;;4968674;28;45399;-86
2024/01/21 09:02:36;;;;;;;4.40;3.90;;;21.10;19.90;;;;;;4972145;28;45190;-83
2024/01/21 09:05:05;;;;;;;4.50;3.78;;;21.00;19.80;;;;;;4987415;28;44865;-85
2024/01/21 09:07:31;;;;;;;4.68;3.88;;;21.10;19.90;;;;;;4962716;28;48077;-81
2024/01/21 09:09:57;;;;;;;4.40;3.70;;;21.10;19.90;;;;;;4974099;28;45312;-83
2024/01/21 09:12:23;;;;;;;4.05;3.28;;;21.00;19.90;;;;;;4989845;28;45385;-82
2024/01/21 09:14:49;;;;;;;4.13;3.57;;;21.00;19.90;;;;;;5008326;28;44803;-81
2024/01/21 09:17:15;;;;;;;3.83;3.35;;;21.00;19.90;;;;;;4968812;28;46189;-81
2024/01/21 09:19:41;;;;;;;4.10;3.40;;;21.10;19.90;;;;;;4971765;28;45400;-80
2024/01/21 09:22:06;;;;;;;4.03;3.33;;;21.00;19.90;;;;;;4987236;28;45165;-82
2024/01/21 09:24:32;;;;;;;3.93;3.40;;;21.00;20.00;;;;;;4988179;28;44970;-82
2024/01/21 09:26:58;;;;;;;3.60;3.30;;;21.00;19.90;;;;;;4982704;28;45413;-82
2024/01/21 09:29:24;;;;;;;3.58;3.22;;;21.00;20.00;;;;;;5003680;28;44843;-82
2024/01/21 09:31:55;;;;;;;3.53;3.03;;;21.00;20.00;;;;;;4965672;28;45203;-83
2024/01/21 09:34:20;;;;;;;3.97;3.55;;;21.00;20.00;;;;;;4979475;28;45431;-81
2024/01/21 09:36:46;;;;;;;4.32;3.10;;;21.00;20.00;;;;;;4988604;28;46104;-82
2024/01/21 09:39:12;;;;;;;4.53;3.20;;;21.00;20.00;;;;;;4974361;28;45148;-82
2024/01/21 09:41:49;;;;;;;3.85;3.17;;;21.00;20.00;;;;;;5004155;28;45568;-82
2024/01/21 09:44:21;;;;;;;4.07;3.13;;;21.00;20.00;;;;;;4982163;28;45068;-83
2024/01/21 09:47:12;;;;;;;3.95;3.40;;;21.00;20.00;;;;;;4980857;28;46308;-82
2024/01/21 09:49:37;;;;;;;3.58;2.85;;;21.00;20.00;;;;;;4992404;28;44862;-82
2024/01/21 09:52:04;;;;;;;3.40;3.08;;;21.00;20.00;;;;;;4960260;28;45675;-82
2024/01/21 09:54:30;;;;;;;2.90;2.60;;;20.90;20.10;;;;;;4990926;28;45251;-80
2024/01/21 09:56:56;;;;;;;3.43;3.10;;;21.00;20.10;;;;;;4972228;28;45848;-81
2024/01/21 09:59:21;;;;;;;3.83;3.17;;;20.90;20.10;;;;;;4972206;28;45953;-83
2024/01/21 10:01:47;;;;;;;3.43;3.13;;;20.90;20.10;;;;;;4960215;28;45452;-83
2024/01/21 10:04:16;;;;;;;3.53;3.00;;;20.90;20.10;;;;;;5001975;28;45527;-81
2024/01/21 10:06:42;;;;;;;3.25;2.85;;;21.00;20.20;;;;;;4972873;28;47375;-83
2024/01/21 10:09:19;;;;;;;3.30;3.00;;;20.90;20.10;;;;;;4979840;28;45809;-82
2024/01/21 10:11:49;;;;;;;3.40;3.00;;;20.90;20.10;;;;;;4974479;28;45282;-80
2024/01/21 10:14:14;;;;;;;3.28;2.95;;;20.90;20.20;;;;;;4962433;28;45776;-80
2024/01/21 10:16:42;;;;;;;4.00;3.20;;;20.90;20.20;;;;;;4969896;28;46503;-81
2024/01/21 10:19:12;;;;;;;4.00;3.10;;;20.90;20.20;;;;;;4992322;28;46308;-81
2024/01/21 10:21:39;;;;;;;3.25;2.95;;;20.90;20.20;;;;;;4984486;28;45046;-82
2024/01/21 10:24:07;;;;;;;4.75;3.10;;;20.90;20.20;;;;;;4982721;28;45162;-81
2024/01/21 10:26:33;;;;;;;3.08;2.78;;;20.90;20.20;;;;;;4979608;28;46836;-81
2024/01/21 10:28:58;;;;;;;3.30;3.00;;;20.90;20.20;;;;;;4981883;28;45031;-82
2024/01/21 10:31:25;;;;;;;3.22;2.92;;;20.90;20.30;;;;;;4966672;28;45432;-82
2024/01/21 10:33:51;;;;;;;3.45;3.03;;;20.80;20.30;;;;;;4983296;28;45509;-84
2024/01/21 10:36:17;;;;;;;3.95;2.90;;;20.90;20.30;;;;;;4987974;28;46157;-82
2024/01/21 10:39:03;;;;;;;3.92;3.30;;;20.80;20.30;;;;;;4998186;28;45145;-82
2024/01/21 10:41:51;;;;;;;3.50;3.10;;;20.80;20.30;;;;;;4970786;28;45599;-83
2024/01/21 10:44:41;;;;;;;3.50;3.20;;;20.80;20.30;;;;;;4995294;28;45744;-81
2024/01/21 10:47:28;;;;;;;3.50;3.03;;;20.80;20.40;;;;;;4973241;28;45480;-80
2024/01/21 10:49:54;;;;;;;3.40;3.10;;;20.80;20.40;;;;;;4966242;28;45316;-82
2024/01/21 10:52:20;;;;;;;4.10;3.30;;;20.90;20.40;;;;;;4979227;28;45473;-80
2024/01/21 10:54:45;;;;;;;3.53;3.10;;;20.80;20.40;;;;;;4969828;28;45657;-81
2024/01/21 10:57:13;;;;;;;4.17;3.43;;;20.80;20.40;;;;;;4982622;28;46561;-81
2024/01/21 10:59:39;;;;;;;5.57;3.40;;;20.80;20.40;;;;;;5000843;28;45024;-82
2024/01/21 11:02:05;;;;;;;3.78;3.13;;;20.80;20.50;;;;;;4963896;28;45211;-83
2024/01/21 11:04:30;;;;;;;3.35;3.05;;;20.80;20.50;;;;;;4963553;28;45248;-81
2024/01/21 11:06:56;;;;;;;6.00;4.00;;;20.70;20.50;;;;;;4981546;28;45485;-81
2024/01/21 11:09:22;;;;;;;3.70;3.33;;;20.80;20.50;;;;;;4983743;28;45037;-80
2024/01/21 11:11:52;;;;;;;3.90;3.10;;;20.80;20.50;;;;;;5001384;28;45392;-81
2024/01/21 11:14:33;;;;;;;4.10;3.55;;;20.80;20.60;;;;;;4987225;28;45627;-81
2024/01/21 11:17:23;;;;;;;4.50;3.28;;;20.80;20.60;;;;;;4999420;28;45819;-86
2024/01/21 11:19:53;;;;;;;4.53;3.40;;;20.70;20.50;;;;;;4991887;28;45541;-81
2024/01/21 11:22:21;;;;;;;3.75;3.33;;;20.70;20.60;;;;;;4969384;28;45053;-82
2024/01/21 11:24:47;;;;;;;3.67;3.30;;;20.70;20.60;;;;;;4999606;28;45490;-81
2024/01/21 11:27:17;;;;;;;3.90;3.43;;;20.70;20.60;;;;;;4950025;28;45955;-81
2024/01/21 11:29:44;;;;;;;3.67;3.25;;;20.70;20.60;;;;;;4974851;28;45359;-81
2024/01/21 11:32:09;;;;;;;4.03;3.50;;;20.70;20.70;;;;;;4966435;28;44976;-81
2024/01/21 11:35:09;;;;;;;4.17;3.57;;;20.70;20.70;;;;;;4961257;28;45288;-80
2024/01/21 11:37:36;;;;;;;4.10;3.40;;;20.70;20.70;;;;;;4967676;28;46268;-83
2024/01/21 11:40:06;;;;;;;3.58;3.00;;;20.70;20.70;;;;;;4986818;28;44659;-85
2024/01/21 11:42:34;;;;;;;4.97;3.78;;;20.70;20.70;;;;;;4961927;28;45475;-83
2024/01/21 11:45:23;;;;;;;3.95;3.40;;;20.70;20.70;;;;;;4980757;28;45182;-82
2024/01/21 11:47:49;;;;;;;3.80;3.40;;;20.70;20.70;;;;;;4969869;28;46326;-81
2024/01/21 11:50:17;;;;;;;4.85;3.70;;;20.70;20.80;;;;;;4985220;28;45526;-81
2024/01/21 11:52:43;;;;;;;3.58;3.28;;;20.70;20.80;;;;;;4962779;28;44825;-83
2024/01/21 11:55:09;;;;;;;4.40;3.70;;;20.70;20.80;;;;;;4971435;28;45143;-85
2024/01/21 11:57:35;;;;;;;4.30;3.75;;;20.60;20.80;;;;;;4973746;28;47759;-81
2024/01/21 12:00:01;;;;;;;4.53;3.63;;;20.70;20.80;;;;;;4983651;28;44857;-83
2024/01/21 12:02:26;;;;;;;4.33;3.70;;;20.60;20.80;;;;;;4981781;28;44787;-82
2024/01/21 12:04:55;;;;;;;4.47;3.47;;;20.60;20.80;;;;;;4966939;28;45321;-82
2024/01/21 12:07:20;;;;;;;3.97;3.57;;;20.60;20.80;;;;;;4965354;28;46052;-81
2024/01/21 12:09:49;;;;;;;4.03;3.60;;;20.60;20.80;;;;;;4999347;28;45408;-82
2024/01/21 12:12:15;;;;;;;4.20;3.67;;;20.60;20.90;;;;;;4981052;28;45309;-83
2024/01/21 12:14:41;;;;;;;4.43;4.03;;;20.60;20.90;;;;;;4978536;28;45219;-82
2024/01/21 12:17:06;;;;;;;4.63;3.83;;;20.60;20.90;;;;;;4973252;28;45539;-83
2024/01/21 12:19:32;;;;;;;4.20;3.80;;;20.60;20.90;;;;;;4972078;28;45351;-81
2024/01/21 12:21:57;;;;;;;4.60;3.97;;;20.60;20.90;;;;;;4982724;28;45262;-82
2024/01/21 12:24:23;;;;;;;4.75;3.97;;;20.60;21.00;;;;;;4999805;28;45142;-82
2024/01/21 12:26:49;;;;;;;5.15;3.85;;;20.60;21.00;;;;;;4991736;28;46057;-82
2024/01/21 12:29:15;;;;;;;4.87;4.23;;;20.60;21.00;;;;;;4987924;28;45379;-82
2024/01/21 12:31:41;;;;;;;4.43;3.65;;;20.60;21.00;;;;;;4955610;28;46685;-83
2024/01/21 12:34:09;;;;;;;4.47;3.77;;;20.60;21.00;;;;;;4965220;28;45623;-81
2024/01/21 12:36:41;;;;;;;4.23;3.77;;;20.60;21.50;;;;;;4960945;28;45297;-83
2024/01/21 12:39:13;;;;;;;5.43;4.13;;;20.50;21.00;;;;;;4974851;28;45268;-80
2024/01/21 12:41:38;;;;;;;4.22;3.83;;;20.60;21.10;;;;;;4957206;28;45178;-83
2024/01/21 12:44:05;;;;;;;4.70;4.10;;;20.60;21.10;;;;;;4966829;28;45215;-81
2024/01/21 12:46:30;;;;;;;5.32;4.18;;;20.50;21.10;;;;;;4972484;28;46209;-82
2024/01/21 12:48:56;;;;;;;4.28;3.70;;;20.60;21.10;;;;;;4989147;28;45724;-81
2024/01/21 12:51:25;;;;;;;4.70;4.20;;;20.50;21.10;;;;;;4973955;28;46190;-82
2024/01/21 12:53:52;;;;;;;5.05;4.22;;;20.50;21.10;;;;;;4972632;28;45077;-82
2024/01/21 12:56:17;;;;;;;4.65;3.90;;;20.50;21.20;;;;;;4985609;28;47317;-82
2024/01/21 12:58:43;;;;;;;4.53;4.03;;;20.50;21.20;;;;;;4973883;28;46382;-83
2024/01/21 13:01:10;;;;;;;4.25;3.85;;;20.50;21.20;;;;;;4998225;28;45608;-82
2024/01/21 13:03:36;;;;;;;5.13;4.60;;;20.40;21.20;;;;;;4990806;28;45240;-82
2024/01/21 13:06:03;;;;;;;4.57;4.05;;;20.50;21.20;;;;;;4971487;28;47203;-86
2024/01/21 13:09:00;;;;;;;4.75;4.00;;;20.50;21.20;;;;;;4963701;28;45342;-82
2024/01/21 13:11:26;;;;;;;4.78;4.03;;;20.50;21.30;;;;;;4984506;28;45418;-84
2024/01/21 13:13:52;;;;;;;5.17;4.33;;;20.50;21.30;;;;;;4988378;28;45220;-81
2024/01/21 13:16:18;;;;;;;5.93;4.60;;;20.40;21.20;;;;;;4997832;28;45810;-81
2024/01/21 13:18:44;;;;;;;5.93;4.60;;;20.40;21.30;;;;;;4971041;28;45260;-83
2024/01/21 13:21:12;;;;;;;5.30;4.50;;;20.40;21.30;;;;;;4973207;28;44771;-83
2024/01/21 13:23:37;;;;;;;4.68;4.00;;;20.50;21.40;;;;;;4977004;28;45265;-81
2024/01/21 13:26:04;;;;;;;4.90;4.33;;;20.40;21.40;;;;;;4955023;28;46343;-82
2024/01/21 13:28:38;;;;;;;5.45;4.47;;;20.40;21.40;;;;;;4990048;28;44701;-81
2024/01/21 13:31:05;;;;;;;5.32;4.60;;;20.40;21.40;;;;;;4969569;28;45322;-82
2024/01/21 13:33:32;;;;;;;5.43;4.53;;;20.40;21.40;;;;;;5004133;28;44944;-82
2024/01/21 13:35:58;;;;;;;5.50;4.78;;;20.40;21.40;;;;;;4999115;28;45327;-82
2024/01/21 13:38:29;;;;;;;5.60;4.35;;;20.40;21.40;;;;;;4993113;28;45498;-81
2024/01/21 13:40:55;;;;;;;4.97;4.38;;;20.40;21.50;;;;;;4987941;28;44953;-82
2024/01/21 13:43:21;;;;;;;5.28;4.40;;;20.50;21.50;;;;;;4983116;28;46251;-82
2024/01/21 13:45:47;;;;;;;6.57;5.13;;;20.40;21.50;;;;;;4953592;28;46343;-82
2024/01/21 13:48:21;;;;;;;4.88;4.30;;;20.40;21.50;;;;;;4980227;28;45273;-82
2024/01/21 13:50:47;;;;;;;5.40;4.63;;;20.30;21.50;;;;;;5001738;28;44897;-81
2024/01/21 13:53:14;;;;;;;5.60;4.85;;;20.30;21.50;;;;;;4990130;28;45126;-82
2024/01/21 13:55:39;;;;;;;5.55;4.90;;;20.40;21.50;;;;;;4973041;28;45908;-84
2024/01/21 13:58:05;;;;;;;6.17;4.97;;;20.40;21.60;;;;;;4993866;28;46056;-81
2024/01/21 14:00:32;;;;;;;6.30;4.80;;;20.30;21.60;;;;;;4970367;28;45306;-82
2024/01/21 14:02:59;;;;;;;7.65;5.05;;;20.30;21.60;;;;;;4990895;28;45328;-81
2024/01/21 14:05:25;;;;;;;5.60;4.95;;;20.30;21.60;;;;;;4971949;28;46241;-81
2024/01/21 14:07:51;;;;;;;6.43;4.65;;;20.30;21.60;;;;;;4994156;28;44889;-81
2024/01/21 14:10:20;;;;;;;5.53;4.60;;;20.30;21.60;;;;;;4982439;28;45223;-82
2024/01/21 14:12:46;;;;;;;5.57;4.68;;;20.30;21.60;;;;;;4984574;28;45277;-82
2024/01/21 14:15:15;;;;;;;5.68;4.97;;;20.30;21.70;;;;;;4984411;28;46211;-83
2024/01/21 14:17:41;;;;;;;5.30;4.63;;;20.30;21.70;;;;;;4989166;28;45323;-82
2024/01/21 14:20:08;;;;;;;5.30;4.78;;;20.30;21.70;;;;;;4990067;28;45251;-83
2024/01/21 14:22:34;;;;;;;6.22;4.80;;;20.30;21.70;;;;;;4979204;28;45684;-81
2024/01/21 14:25:18;;;;;;;5.17;4.20;;;20.30;21.70;;;;;;4958184;28;46224;-80
2024/01/21 14:27:44;;;;;;;6.63;4.73;;;20.30;21.80;;;;;;4967621;28;45546;-81
2024/01/21 14:30:15;;;;;;;5.45;4.65;;;20.30;21.80;;;;;;4982813;28;45214;-85
2024/01/21 14:32:41;;;;;;;5.60;4.68;;;20.30;21.80;;;;;;4998298;28;45524;-82
2024/01/21 14:35:08;;;;;;;5.85;4.90;;;20.30;21.80;;;;;;4969268;28;46401;-84
2024/01/21 14:37:33;;;;;;;5.83;4.57;;;20.30;21.80;;;;;;4987354;28;45253;-82
2024/01/21 14:39:59;;;;;;;6.10;4.80;;;20.20;21.80;;;;;;4956045;28;44915;-81
2024/01/21 14:42:26;;;;;;;5.70;4.63;;;20.30;21.90;;;;;;4972217;28;45276;-83
2024/01/21 14:44:51;;;;;;;6.50;5.00;;;20.20;21.90;;;;;;5001815;28;46858;-82
2024/01/21 14:47:17;;;;;;;5.72;4.80;;;20.20;21.90;;;;;;4969633;28;45119;-82
2024/01/21 14:49:43;;;;;;;5.80;4.80;;;20.30;22.00;;;;;;4959981;28;44917;-82
2024/01/21 14:52:09;;;;;;;6.18;5.10;;;20.20;21.90;;;;;;4992726;28;45112;-84
2024/01/21 14:54:35;;;;;;;6.70;4.63;;;20.20;22.00;;;;;;4986634;28;46344;-83
2024/01/21 14:57:00;;;;;;;5.93;4.70;;;20.20;22.00;;;;;;5000813;28;45383;-83
2024/01/21 14:59:26;;;;;;;6.53;4.90;;;20.20;22.00;;;;;;4976457;28;45627;-84
2024/01/21 15:01:52;;;;;;;7.63;5.10;;;20.20;22.10;;;;;;4968348;28;45206;-82
2024/01/21 15:04:18;;;;;;;7.25;5.10;;;20.20;22.10;;;;;;4972583;28;45577;-81
2024/01/21 15:06:44;;;;;;;6.38;4.88;;;20.20;22.10;;;;;;4969096;28;45359;-83
2024/01/21 15:09:09;;;;;;;5.47;4.75;;;20.20;22.10;;;;;;4956328;28;45438;-81
2024/01/21 15:11:35;;;;;;;6.10;4.83;;;20.20;22.10;;;;;;4974617;28;45958;-82
2024/01/21 15:14:05;;;;;;;5.20;4.70;;;20.20;22.20;;;;;;4986843;28;46299;-82
2024/01/21 15:16:31;;;;;;;5.75;4.80;;;20.10;22.20;;;;;;4987723;28;45256;-82
2024/01/21 15:18:56;;;;;;;6.03;4.67;;;20.20;22.30;;;;;;4988602;28;45719;-81
2024/01/21 15:21:22;;;;;;;5.97;5.03;;;20.10;22.20;;;;;;4980231;28;44682;-82
2024/01/21 15:23:49;;;;;;;5.97;5.20;;;20.20;22.30;;;;;;4972882;28;46232;-83
2024/01/21 15:26:15;;;;;;;6.70;5.10;;;20.20;22.40;;;;;;4983727;28;45284;-82
2024/01/21 15:28:41;;;;;;;6.00;4.80;;;20.10;22.40;;;;;;5006321;28;45005;-81
2024/01/21 15:31:07;;;;;;;6.03;4.90;;;20.20;22.40;;;;;;4980238;28;45770;-82
2024/01/21 15:33:33;;;;;;;6.05;4.75;;;20.20;22.40;;;;;;4985841;28;46370;-82
2024/01/21 15:35:59;;;;;;;5.90;4.68;;;20.20;22.40;;;;;;4971339;28;45318;-84
2024/01/21 15:38:26;;;;;;;6.57;4.90;;;20.20;22.50;;;;;;5004762;28;45303;-82
2024/01/21 15:40:52;;;;;;;5.97;4.82;;;20.20;22.40;;;;;;4999077;28;46238;-81
2024/01/21 15:43:19;;;;;;;5.00;4.50;;;20.30;22.50;;;;;;4990972;28;45461;-82
2024/01/21 15:45:45;;;;;;;5.97;4.90;;;20.30;22.50;;;;;;4999794;28;44980;-82
2024/01/21 15:48:11;;;;;;;5.32;4.72;;;20.30;22.60;;;;;;4989782;28;44809;-83
2024/01/21 15:50:37;;;;;;;7.23;4.83;;;20.30;22.60;;;;;;4986108;28;45266;-83
2024/01/21 15:53:03;;;;;;;6.30;4.93;;;20.30;22.60;;;;;;4972901;28;46250;-81
2024/01/21 15:55:29;;;;;;;6.13;4.70;;;20.30;22.70;;;;;;4977371;28;45903;-82
2024/01/21 15:57:55;;;;;;;6.22;4.90;;;20.30;22.60;;;;;;5008815;28;45339;-82
2024/01/21 16:00:21;;;;;;;5.50;4.65;;;20.40;22.70;;;;;;4955808;28;45789;-83
2024/01/21 16:02:46;;;;;;;6.25;4.90;;;20.40;22.70;;;;;;4987546;28;46135;-81
2024/01/21 16:05:14;;;;;;;5.83;4.70;;;20.40;22.70;;;;;;4987420;28;45591;-82
2024/01/21 16:07:39;;;;;;;5.90;4.45;;;20.40;22.70;;;;;;4991088;28;44991;-82
2024/01/21 16:10:09;;;;;;;6.67;4.97;;;20.40;22.80;;;;;;4974836;28;45106;-86
2024/01/21 16:12:34;;;;;;;6.07;4.68;;;20.40;22.70;;;;;;4961164;28;46425;-82
2024/01/21 16:15:00;;;;;;;5.30;4.50;;;20.50;22.80;;;;;;4988516;28;44856;-82
2024/01/21 16:17:26;;;;;;;5.10;4.60;;;20.50;22.80;;;;;;4981622;28;45276;-83
2024/01/21 16:19:53;;;;;;;6.65;4.75;;;20.50;22.80;;;;;;5008986;28;44731;-82
2024/01/21 16:22:19;;;;;;;6.33;4.83;;;20.50;22.80;;;;;;5007456;28;46628;-84
2024/01/21 16:24:46;;;;;;;6.30;4.93;;;20.50;22.80;;;;;;4971035;28;45243;-82
2024/01/21 16:27:11;;;;;;;6.68;5.00;;;20.50;22.80;;;;;;4988794;28;45210;-82
2024/01/21 16:29:37;;;;;;;5.90;4.67;;;20.60;22.80;;;;;;4964096;28;45699;-82
2024/01/21 16:32:04;;;;;;;6.27;4.70;;;20.60;23.30;;;;;;4968372;28;47362;-82
2024/01/21 16:34:30;;;;;;;6.40;4.72;;;20.60;22.80;;;;;;5007753;28;45296;-83
2024/01/21 16:36:55;;;;;;;5.20;4.57;;;20.60;22.80;;;;;;4989500;28;45721;-83
2024/01/21 16:39:21;;;;;;;5.77;4.70;;;20.60;22.80;;;;;;4961602;28;45672;-84
2024/01/21 16:41:50;;;;;;;5.18;4.65;;;20.60;22.70;;;;;;4987180;28;45403;-82
2024/01/21 16:44:18;;;;;;;5.65;4.60;;;20.70;22.80;;;;;;4988155;28;45520;-82
2024/01/21 16:46:43;;;;;;;5.82;4.93;;;20.70;22.70;;;;;;4964196;28;45521;-83